createdAt,value
2023-12-08T00:01:26.165Z,101394.16
2023-12-08T00:03:54.418Z,101402.34
2023-12-08T00:06:21.601Z,101398.75
2023-12-08T00:08:48.451Z,101395.50
2023-12-08T00:11:15.335Z,101399.09
2023-12-08T00:13:42.645Z,101391.03
2023-12-08T00:16:09.609Z,101386.75
2023-12-08T00:18:40.919Z,101381.31
2023-12-08T00:21:08.207Z,101382.97
2023-12-08T00:23:44.041Z,101372.41
2023-12-08T00:26:20.865Z,101377.00
2023-12-08T00:29:01.921Z,101387.69
2023-12-08T00:31:33.018Z,101395.63
2023-12-08T00:34:10.140Z,101390.75
2023-12-08T00:36:48.990Z,101395.09
2023-12-08T00:39:24.266Z,101387.38
2023-12-08T00:41:54.123Z,101375.34
2023-12-08T00:44:20.945Z,101374.22
2023-12-08T00:46:47.728Z,101373.28
2023-12-08T00:49:14.670Z,101370.44
2023-12-08T00:51:42.841Z,101371.88
2023-12-08T00:54:10.568Z,101362.00
2023-12-08T00:56:38.445Z,101341.78
2023-12-08T00:59:05.201Z,101334.78
2023-12-08T01:01:31.964Z,101331.91
2023-12-08T01:03:58.777Z,101343.88
2023-12-08T01:06:25.753Z,101338.09
2023-12-08T01:08:52.643Z,101334.66
2023-12-08T01:11:27.038Z,101335.03
2023-12-08T01:13:55.321Z,101330.78
2023-12-08T01:16:22.070Z,101326.50
2023-12-08T01:18:49.018Z,101330.50
2023-12-08T01:21:15.831Z,101330.50
2023-12-08T01:23:42.664Z,101327.88
2023-12-08T01:26:12.280Z,101336.69
2023-12-08T01:28:41.660Z,101343.69
2023-12-08T01:31:08.479Z,101334.59
2023-12-08T01:33:35.411Z,101340.75
2023-12-08T01:36:38.459Z,101343.50
2023-12-08T01:38:52.029Z,101338.78
2023-12-08T01:41:19.272Z,101339.63
2023-12-08T01:43:46.709Z,101342.94
2023-12-08T01:46:16.550Z,101348.28
2023-12-08T01:48:47.381Z,101345.78
2023-12-08T01:51:18.763Z,101348.72
2023-12-08T01:53:50.788Z,101343.44
2023-12-08T01:56:17.580Z,101342.47
2023-12-08T01:58:45.720Z,101346.06
2023-12-08T02:01:12.808Z,101340.13
2023-12-08T02:03:41.744Z,101323.94
2023-12-08T02:06:09.163Z,101326.03
2023-12-08T02:08:36.708Z,101312.97
2023-12-08T02:11:03.625Z,101302.50
2023-12-08T02:13:30.521Z,101290.66
2023-12-08T02:16:07.912Z,101287.94
2023-12-08T02:18:38.332Z,101283.25
2023-12-08T02:21:09.894Z,101270.06
2023-12-08T02:23:37.475Z,101268.28
2023-12-08T02:26:17.310Z,101274.88
2023-12-08T02:28:46.612Z,101268.16
2023-12-08T02:31:17.374Z,101258.66
2023-12-08T02:33:46.259Z,101257.13
2023-12-08T02:36:17.759Z,101252.59
2023-12-08T02:38:47.492Z,101241.56
2023-12-08T02:41:14.829Z,101239.53
2023-12-08T02:43:41.628Z,101235.13
2023-12-08T02:46:08.367Z,101235.97
2023-12-08T02:48:35.470Z,101227.00
2023-12-08T02:51:04.380Z,101233.34
2023-12-08T02:53:31.528Z,101226.34
2023-12-08T02:55:58.289Z,101218.22
2023-12-08T02:58:25.043Z,101223.44
2023-12-08T03:00:57.812Z,101219.16
2023-12-08T03:03:24.748Z,101223.72
2023-12-08T03:05:51.588Z,101214.78
2023-12-08T03:08:18.392Z,101212.69
2023-12-08T03:10:49.234Z,101223.25
2023-12-08T03:13:16.013Z,101221.47
2023-12-08T03:15:42.836Z,101218.75
2023-12-08T03:18:09.684Z,101212.81
2023-12-08T03:20:36.630Z,101211.03
2023-12-08T03:23:03.520Z,101205.97
2023-12-08T03:25:30.385Z,101200.16
2023-12-08T03:27:57.123Z,101196.69
2023-12-08T03:30:23.917Z,101181.44
2023-12-08T03:32:50.947Z,101176.75
2023-12-08T03:35:17.809Z,101177.56
2023-12-08T03:37:44.553Z,101191.22
2023-12-08T03:40:11.703Z,101182.94
2023-12-08T03:42:38.599Z,101183.63
2023-12-08T03:45:06.338Z,101167.13
2023-12-08T03:47:33.602Z,101162.69
2023-12-08T03:50:00.486Z,101160.59
2023-12-08T03:52:27.912Z,101155.47
2023-12-08T03:54:54.765Z,101152.31
2023-12-08T03:57:22.216Z,101151.09
2023-12-08T03:59:49.105Z,101149.72
2023-12-08T04:02:16.095Z,101143.13
2023-12-08T04:04:43.529Z,101138.97
2023-12-08T04:07:10.408Z,101143.00
2023-12-08T04:09:37.281Z,101133.25
2023-12-08T04:12:04.390Z,101140.81
2023-12-08T04:14:31.355Z,101141.53
2023-12-08T04:16:59.715Z,101153.63
2023-12-08T04:19:26.667Z,101142.34
2023-12-08T04:21:53.552Z,101143.59
2023-12-08T04:24:25.032Z,101157.50
2023-12-08T04:26:51.841Z,101151.19
2023-12-08T04:29:18.596Z,101140.63
2023-12-08T04:31:45.497Z,101145.97
2023-12-08T04:34:12.717Z,101145.06
2023-12-08T04:36:39.584Z,101158.72
2023-12-08T04:39:06.411Z,101161.88
2023-12-08T04:41:33.295Z,101157.06
2023-12-08T04:44:00.166Z,101154.72
2023-12-08T04:46:26.944Z,101151.72
2023-12-08T04:48:54.058Z,101149.66
2023-12-08T04:51:20.902Z,101160.41
2023-12-08T04:53:47.860Z,101162.03
2023-12-08T04:56:14.643Z,101155.81
2023-12-08T04:58:41.441Z,101145.09
2023-12-08T05:01:13.445Z,101135.03
2023-12-08T05:03:43.076Z,101130.09
2023-12-08T05:06:10.501Z,101129.13
2023-12-08T05:08:38.006Z,101128.44
2023-12-08T05:11:04.892Z,101133.41
2023-12-08T05:13:31.800Z,101136.00
2023-12-08T05:15:58.676Z,101142.19
2023-12-08T05:18:25.643Z,101138.34
2023-12-08T05:20:52.780Z,101133.25
2023-12-08T05:23:24.512Z,101137.97
2023-12-08T05:25:51.332Z,101140.28
2023-12-08T05:28:23.384Z,101135.88
2023-12-08T05:30:50.056Z,101136.34
2023-12-08T05:33:16.949Z,101136.56
2023-12-08T05:35:43.872Z,101133.25
2023-12-08T05:38:10.622Z,101134.81
2023-12-08T05:40:37.689Z,101133.41
2023-12-08T05:43:04.968Z,101144.19
2023-12-08T05:45:31.769Z,101146.63
2023-12-08T05:47:58.677Z,101148.31
2023-12-08T05:50:25.704Z,101147.88
2023-12-08T05:52:52.628Z,101141.00
2023-12-08T05:55:19.422Z,101148.22
2023-12-08T05:57:46.452Z,101140.22
2023-12-08T06:00:13.974Z,101144.78
2023-12-08T06:02:44.436Z,101146.81
2023-12-08T06:05:12.162Z,101144.22
2023-12-08T06:07:39.444Z,101135.16
2023-12-08T06:10:07.601Z,101143.97
2023-12-08T06:12:34.524Z,101136.00
2023-12-08T06:15:01.686Z,101135.81
2023-12-08T06:17:29.472Z,101143.91
2023-12-08T06:19:57.746Z,101134.22
2023-12-08T06:22:24.944Z,101142.41
2023-12-08T06:24:51.927Z,101137.41
2023-12-08T06:27:18.775Z,101137.66
2023-12-08T06:29:45.782Z,101137.84
2023-12-08T06:32:12.644Z,101132.63
2023-12-08T06:34:39.618Z,101138.69
2023-12-08T06:37:06.474Z,101141.72
2023-12-08T06:39:44.307Z,101130.47
2023-12-08T06:42:13.698Z,101121.69
2023-12-08T06:44:40.537Z,101114.81
2023-12-08T06:47:07.437Z,101111.94
2023-12-08T06:49:34.518Z,101118.72
2023-12-08T06:52:01.327Z,101116.75
2023-12-08T06:54:28.147Z,101118.56
2023-12-08T06:56:55.279Z,101118.13
2023-12-08T06:59:22.140Z,101112.66
2023-12-08T07:01:48.875Z,101109.09
2023-12-08T07:04:15.668Z,101103.69
2023-12-08T07:06:42.637Z,101110.59
2023-12-08T07:09:09.527Z,101107.44
2023-12-08T07:11:36.537Z,101108.09
2023-12-08T07:14:03.424Z,101110.59
2023-12-08T07:16:30.239Z,101113.19
2023-12-08T07:18:58.609Z,101111.78
2023-12-08T07:21:26.001Z,101115.75
2023-12-08T07:23:52.867Z,101120.19
2023-12-08T07:26:19.666Z,101123.28
2023-12-08T07:28:46.604Z,101121.22
2023-12-08T07:31:13.403Z,101124.78
2023-12-08T07:33:42.128Z,101119.16
2023-12-08T07:36:09.330Z,101124.28
2023-12-08T07:38:36.076Z,101134.03
2023-12-08T07:41:03.011Z,101133.50
2023-12-08T07:43:29.841Z,101131.16
2023-12-08T07:45:59.985Z,101132.56
2023-12-08T07:48:29.257Z,101135.44
2023-12-08T07:50:57.242Z,101133.13
2023-12-08T07:53:24.124Z,101123.22
2023-12-08T07:55:51.142Z,101117.31
2023-12-08T07:58:17.916Z,101118.13
2023-12-08T08:00:44.712Z,101126.13
2023-12-08T08:03:11.661Z,101127.50
2023-12-08T08:05:38.599Z,101133.19
2023-12-08T08:08:05.774Z,101142.13
2023-12-08T08:10:32.718Z,101142.88
2023-12-08T08:12:59.504Z,101139.97
2023-12-08T08:15:26.337Z,101151.13
2023-12-08T08:17:56.421Z,101145.63
2023-12-08T08:20:24.073Z,101137.16
2023-12-08T08:22:50.846Z,101135.31
2023-12-08T08:25:17.639Z,101138.75
2023-12-08T08:27:44.431Z,101134.09
2023-12-08T08:30:11.638Z,101146.97
2023-12-08T08:32:38.485Z,101144.44
2023-12-08T08:35:05.852Z,101144.69
2023-12-08T08:37:33.800Z,101148.25
2023-12-08T08:40:00.670Z,101149.00
2023-12-08T08:42:27.459Z,101147.38
2023-12-08T08:44:54.389Z,101158.03
2023-12-08T08:47:21.398Z,101163.41
2023-12-08T08:49:48.469Z,101166.31
2023-12-08T08:52:15.393Z,101173.19
2023-12-08T08:54:50.640Z,101177.59
2023-12-08T08:57:17.962Z,101176.34
2023-12-08T08:59:45.209Z,101175.69
2023-12-08T09:02:11.978Z,101179.66
2023-12-08T09:04:38.890Z,101172.78
2023-12-08T09:07:05.944Z,101187.94
2023-12-08T09:09:33.030Z,101180.91
2023-12-08T09:12:02.410Z,101186.28
2023-12-08T09:14:29.217Z,101187.13
2023-12-08T09:16:56.080Z,101182.28
2023-12-08T09:19:22.917Z,101183.53
2023-12-08T09:21:54.228Z,101190.13
2023-12-08T09:24:22.728Z,101182.03
2023-12-08T09:26:50.333Z,101186.16
2023-12-08T09:29:17.937Z,101172.91
2023-12-08T09:31:47.322Z,101175.13
2023-12-08T09:34:14.259Z,101176.66
2023-12-08T09:36:41.376Z,101182.19
2023-12-08T09:39:28.069Z,101189.34
2023-12-08T09:42:00.937Z,101172.22
2023-12-08T09:44:28.784Z,101176.91
2023-12-08T09:46:57.407Z,101169.44
2023-12-08T09:49:31.325Z,101169.34
2023-12-08T09:51:58.517Z,101163.25
2023-12-08T09:54:32.479Z,101165.06
2023-12-08T09:57:04.163Z,101155.03
2023-12-08T09:59:31.621Z,101156.78
2023-12-08T10:01:58.615Z,101158.59
2023-12-08T10:04:25.452Z,101146.31
2023-12-08T10:06:53.369Z,101149.75
2023-12-08T10:09:21.346Z,101150.63
2023-12-08T10:12:06.773Z,101142.78
2023-12-08T10:14:33.644Z,101145.13
2023-12-08T10:17:02.195Z,101141.94
2023-12-08T10:19:29.152Z,101139.31
2023-12-08T10:22:04.945Z,101137.38
2023-12-08T10:24:34.601Z,101136.69
2023-12-08T10:27:02.191Z,101137.94
2023-12-08T10:29:32.601Z,101133.28
2023-12-08T10:31:59.804Z,101129.53
2023-12-08T10:34:29.415Z,101122.91
2023-12-08T10:36:58.033Z,101119.06
2023-12-08T10:39:27.918Z,101108.41
2023-12-08T10:41:55.077Z,101107.88
2023-12-08T10:44:24.920Z,101106.47
2023-12-08T10:46:53.269Z,101099.06
2023-12-08T10:49:21.421Z,101107.88
2023-12-08T10:51:49.500Z,101100.84
2023-12-08T10:54:20.314Z,101101.38
2023-12-08T10:56:48.080Z,101096.13
2023-12-08T10:59:22.256Z,101091.88
2023-12-08T11:01:50.045Z,101096.13
2023-12-08T11:04:21.767Z,101086.94
2023-12-08T11:07:00.632Z,101086.09
2023-12-08T11:09:29.725Z,101080.03
2023-12-08T11:11:58.748Z,101076.34
2023-12-08T11:14:50.146Z,101073.53
2023-12-08T11:17:35.328Z,101080.63
2023-12-08T11:20:02.909Z,101067.22
2023-12-08T11:22:29.790Z,101069.13
2023-12-08T11:24:58.821Z,101066.75
2023-12-08T11:27:38.630Z,101070.06
2023-12-08T11:30:30.798Z,101065.63
2023-12-08T11:33:16.331Z,101065.63
2023-12-08T11:35:51.445Z,101069.56
2023-12-08T11:38:28.868Z,101060.03
2023-12-08T11:40:55.694Z,101051.47
2023-12-08T11:43:22.495Z,101051.34
2023-12-08T11:45:52.850Z,101054.09
2023-12-08T11:48:19.846Z,101041.56
2023-12-08T11:50:47.929Z,101034.66
2023-12-08T11:53:14.856Z,101035.50
2023-12-08T11:55:41.716Z,101033.97
2023-12-08T11:58:10.703Z,101026.81
2023-12-08T12:00:39.758Z,101036.56
2023-12-08T12:03:08.739Z,101023.88
2023-12-08T12:05:35.916Z,101027.50
2023-12-08T12:08:03.134Z,101016.63
2023-12-08T12:10:32.340Z,101021.34
2023-12-08T12:13:05.980Z,101017.63
2023-12-08T12:15:34.104Z,101023.00
2023-12-08T12:18:11.952Z,101020.53
2023-12-08T12:20:41.651Z,101014.72
2023-12-08T12:23:08.585Z,101016.56
2023-12-08T12:25:42.880Z,101003.31
2023-12-08T12:28:09.646Z,101001.50
2023-12-08T12:30:39.761Z,101001.63
2023-12-08T12:33:07.380Z,100995.00
2023-12-08T12:35:34.478Z,100996.59
2023-12-08T12:38:01.803Z,100992.06
2023-12-08T12:40:28.761Z,100993.19
2023-12-08T12:42:55.587Z,100991.69
2023-12-08T12:45:28.168Z,100985.44
2023-12-08T12:48:09.871Z,100983.47
2023-12-08T12:50:46.694Z,100986.25
2023-12-08T12:53:20.205Z,100980.41
2023-12-08T12:55:48.413Z,100990.72
2023-12-08T12:58:22.918Z,100988.47
2023-12-08T13:00:51.597Z,100989.28
2023-12-08T13:03:21.466Z,100987.84
2023-12-08T13:05:49.920Z,100992.28
2023-12-08T13:08:17.957Z,100992.38
2023-12-08T13:10:46.242Z,100985.63
2023-12-08T13:13:13.718Z,100984.53
2023-12-08T13:15:41.436Z,100986.00
2023-12-08T13:18:08.865Z,100979.69
2023-12-08T13:20:36.508Z,100976.69
2023-12-08T13:23:05.088Z,100970.88
2023-12-08T13:25:31.838Z,100967.06
2023-12-08T13:27:58.659Z,100964.38
2023-12-08T13:30:25.716Z,100961.88
2023-12-08T13:32:52.694Z,100965.19
2023-12-08T13:35:19.595Z,100956.91
2023-12-08T13:37:46.620Z,100954.66
2023-12-08T13:40:13.537Z,100944.03
2023-12-08T13:42:40.777Z,100942.97
2023-12-08T13:45:10.597Z,100931.09
2023-12-08T13:47:37.528Z,100928.31
2023-12-08T13:50:04.850Z,100933.72
2023-12-08T13:52:31.621Z,100933.13
2023-12-08T13:54:58.544Z,100935.44
2023-12-08T13:57:26.049Z,100926.53
2023-12-08T13:59:53.279Z,100928.88
2023-12-08T14:02:20.467Z,100935.09
2023-12-08T14:04:47.451Z,100930.53
2023-12-08T14:07:14.319Z,100937.81
2023-12-08T14:09:43.130Z,100929.56
2023-12-08T14:12:11.021Z,100933.09
2023-12-08T14:14:38.415Z,100936.06
2023-12-08T14:17:05.976Z,100942.44
2023-12-08T14:19:33.978Z,100941.22
2023-12-08T14:22:00.901Z,100946.16
2023-12-08T14:24:27.998Z,100940.16
2023-12-08T14:26:57.699Z,100940.34
2023-12-08T14:29:24.628Z,100942.38
2023-12-08T14:31:51.582Z,100943.22
2023-12-08T14:34:18.498Z,100950.94
2023-12-08T14:36:46.462Z,100946.75
2023-12-08T14:39:13.439Z,100938.91
2023-12-08T14:41:40.279Z,100945.94
2023-12-08T14:44:07.111Z,100946.75
2023-12-08T14:46:35.242Z,100956.09
2023-12-08T14:49:02.885Z,100952.91
2023-12-08T14:51:29.735Z,100954.63
2023-12-08T14:53:56.555Z,100954.66
2023-12-08T14:56:23.389Z,100957.72
2023-12-08T14:58:53.629Z,100952.50
2023-12-08T15:01:21.408Z,100954.44
2023-12-08T15:03:48.308Z,100949.03
2023-12-08T15:06:15.367Z,100949.41
2023-12-08T15:08:42.483Z,100948.75
2023-12-08T15:11:09.471Z,100947.09
2023-12-08T15:13:36.285Z,100948.03
2023-12-08T15:16:03.143Z,100949.88
2023-12-08T15:18:38.445Z,100953.84
2023-12-08T15:21:05.347Z,100943.50
2023-12-08T15:23:32.156Z,100950.38
2023-12-08T15:25:59.750Z,100937.84
2023-12-08T15:28:26.609Z,100941.81
2023-12-08T15:30:53.418Z,100943.50
2023-12-08T15:33:24.295Z,100947.09
2023-12-08T15:35:51.776Z,100944.31
2023-12-08T15:38:18.643Z,100946.34
2023-12-08T15:40:45.525Z,100939.63
2023-12-08T15:43:12.330Z,100945.97
2023-12-08T15:45:39.112Z,100957.00
2023-12-08T15:48:08.603Z,100949.94
2023-12-08T15:50:35.406Z,100947.09
2023-12-08T15:53:02.229Z,100954.28
2023-12-08T15:55:29.074Z,100959.75
2023-12-08T15:57:55.800Z,100958.25
2023-12-08T16:00:22.797Z,100965.41
2023-12-08T16:02:49.731Z,100961.00
2023-12-08T16:05:16.466Z,100969.56
2023-12-08T16:07:43.394Z,100976.72
2023-12-08T16:10:10.649Z,100981.31
2023-12-08T16:12:37.542Z,100983.81
2023-12-08T16:15:06.909Z,100984.19
2023-12-08T16:17:33.760Z,100981.63
2023-12-08T16:20:03.517Z,100977.75
2023-12-08T16:22:31.193Z,100983.50
2023-12-08T16:24:57.931Z,100980.31
2023-12-08T16:27:24.709Z,100980.91
2023-12-08T16:29:51.592Z,100981.84
2023-12-08T16:32:18.462Z,100983.09
2023-12-08T16:34:45.224Z,100979.22
2023-12-08T16:37:12.355Z,100980.72
2023-12-08T16:39:39.154Z,100989.69
2023-12-08T16:42:06.323Z,100987.06
2023-12-08T16:44:33.112Z,100991.00
2023-12-08T16:46:59.981Z,101006.69
2023-12-08T16:49:26.924Z,101006.38
2023-12-08T16:51:53.730Z,101011.09
2023-12-08T16:54:20.639Z,101010.38
2023-12-08T16:56:50.622Z,101010.19
2023-12-08T16:59:17.388Z,101009.78
2023-12-08T17:01:45.210Z,101002.78
2023-12-08T17:04:12.110Z,101009.44
2023-12-08T17:06:41.939Z,101011.63
2023-12-08T17:09:09.749Z,101003.38
2023-12-08T17:11:36.687Z,101013.72
2023-12-08T17:14:03.530Z,101011.34
2023-12-08T17:16:30.355Z,101019.78
2023-12-08T17:18:57.254Z,101015.25
2023-12-08T17:21:24.554Z,101013.00
2023-12-08T17:23:51.658Z,101014.13
2023-12-08T17:26:25.344Z,101017.06
2023-12-08T17:28:59.357Z,101021.97
2023-12-08T17:31:26.342Z,101029.69
2023-12-08T17:34:08.556Z,101030.97
2023-12-08T17:36:42.425Z,101033.03
2023-12-08T17:39:09.234Z,101029.19
2023-12-08T17:41:36.045Z,101032.91
2023-12-08T17:44:02.902Z,101036.63
2023-12-08T17:46:29.792Z,101043.78
2023-12-08T17:48:56.919Z,101041.19
2023-12-08T17:51:23.859Z,101041.91
2023-12-08T17:53:52.019Z,101036.09
2023-12-08T17:56:18.765Z,101051.69
2023-12-08T17:58:45.627Z,101038.06
2023-12-08T18:01:13.500Z,101042.06
2023-12-08T18:03:40.900Z,101040.13
2023-12-08T18:06:08.055Z,101040.13
2023-12-08T18:08:34.835Z,101042.19
2023-12-08T18:11:01.680Z,101041.91
2023-12-08T18:13:28.430Z,101042.44
2023-12-08T18:15:55.222Z,101039.94
2023-12-08T18:18:22.248Z,101042.81
2023-12-08T18:20:49.103Z,101042.56
2023-12-08T18:23:15.910Z,101044.91
2023-12-08T18:25:42.626Z,101045.56
2023-12-08T18:28:28.056Z,101045.56
2023-12-08T18:31:01.399Z,101044.22
2023-12-08T18:33:28.147Z,101042.09
2023-12-08T18:35:57.553Z,101052.72
2023-12-08T18:38:24.360Z,101043.47
2023-12-08T18:40:51.222Z,101050.41
2023-12-08T18:43:18.002Z,101056.47
2023-12-08T18:45:44.924Z,101061.81
2023-12-08T18:48:12.004Z,101056.59
2023-12-08T18:50:39.313Z,101064.47
2023-12-08T18:53:09.970Z,101067.78
2023-12-08T18:55:36.807Z,101065.66
2023-12-08T18:58:03.695Z,101060.69
2023-12-08T19:00:33.551Z,101067.88
2023-12-08T19:03:00.502Z,101072.88
2023-12-08T19:05:27.240Z,101068.72
2023-12-08T19:07:54.066Z,101065.41
2023-12-08T19:10:20.918Z,101066.00
2023-12-08T19:12:47.706Z,101064.31
2023-12-08T19:15:14.734Z,101062.91
2023-12-08T19:17:41.545Z,101068.03
2023-12-08T19:20:08.666Z,101076.97
2023-12-08T19:22:37.814Z,101078.22
2023-12-08T19:25:04.954Z,101077.81
2023-12-08T19:27:31.707Z,101076.16
2023-12-08T19:29:58.565Z,101073.28
2023-12-08T19:32:25.520Z,101082.34
2023-12-08T19:34:52.417Z,101086.38
2023-12-08T19:37:19.206Z,101088.47
2023-12-08T19:39:45.970Z,101088.34
2023-12-08T19:42:12.762Z,101090.00
2023-12-08T19:44:39.529Z,101091.78
2023-12-08T19:47:06.400Z,101094.91
2023-12-08T19:49:33.372Z,101097.16
2023-12-08T19:52:00.180Z,101098.66
2023-12-08T19:54:26.973Z,101094.78
2023-12-08T19:56:58.338Z,101107.19
2023-12-08T19:59:25.858Z,101097.78
2023-12-08T20:01:52.636Z,101101.25
2023-12-08T20:04:19.475Z,101104.31
2023-12-08T20:06:46.420Z,101107.91
2023-12-08T20:09:16.060Z,101101.56
2023-12-08T20:11:44.122Z,101111.63
2023-12-08T20:14:11.042Z,101102.00
2023-12-08T20:16:42.508Z,101107.22
2023-12-08T20:19:10.401Z,101102.13
2023-12-08T20:21:37.422Z,101111.78
2023-12-08T20:24:04.644Z,101113.44
2023-12-08T20:26:31.590Z,101115.63
2023-12-08T20:28:58.401Z,101110.13
2023-12-08T20:31:28.173Z,101104.75
2023-12-08T20:33:59.043Z,101117.66
2023-12-08T20:36:26.805Z,101109.56
2023-12-08T20:38:53.717Z,101113.13
2023-12-08T20:41:24.557Z,101116.84
2023-12-08T20:43:51.650Z,101117.41
2023-12-08T20:46:18.432Z,101113.38
2023-12-08T20:48:45.369Z,101114.78
2023-12-08T20:51:12.192Z,101108.59
2023-12-08T20:53:39.029Z,101107.19
2023-12-08T20:56:09.836Z,101117.94
2023-12-08T20:58:36.709Z,101117.78
2023-12-08T21:01:03.733Z,101117.94
2023-12-08T21:03:30.691Z,101118.75
2023-12-08T21:05:57.556Z,101119.03
2023-12-08T21:08:27.554Z,101120.28
2023-12-08T21:10:59.709Z,101119.06
2023-12-08T21:13:33.665Z,101118.22
2023-12-08T21:16:02.583Z,101109.97
2023-12-08T21:18:29.487Z,101114.09
2023-12-08T21:20:56.422Z,101108.06
2023-12-08T21:23:24.560Z,101113.56
2023-12-08T21:25:51.279Z,101106.81
2023-12-08T21:28:18.030Z,101106.09
2023-12-08T21:30:47.949Z,101106.81
2023-12-08T21:33:15.037Z,101104.19
2023-12-08T21:35:42.240Z,101107.06
2023-12-08T21:38:08.998Z,101110.50
2023-12-08T21:40:35.818Z,101114.78
2023-12-08T21:43:03.126Z,101111.22
2023-12-08T21:45:29.930Z,101109.25
2023-12-08T21:47:57.025Z,101113.13
2023-12-08T21:50:23.765Z,101113.94
2023-12-08T21:52:53.187Z,101117.09
2023-12-08T21:55:20.757Z,101116.69
2023-12-08T21:57:47.617Z,101111.44
2023-12-08T22:00:15.621Z,101111.84
2023-12-08T22:02:42.965Z,101121.09
2023-12-08T22:05:09.886Z,101127.16
2023-12-08T22:07:38.423Z,101132.13
2023-12-08T22:10:05.738Z,101130.06
2023-12-08T22:12:32.683Z,101127.84
2023-12-08T22:15:07.034Z,101136.13
2023-12-08T22:17:40.458Z,101131.28
2023-12-08T22:20:08.428Z,101137.22
2023-12-08T22:22:35.287Z,101132.66
2023-12-08T22:25:05.481Z,101132.53
2023-12-08T22:27:32.255Z,101140.38
2023-12-08T22:29:59.245Z,101145.34
2023-12-08T22:32:26.017Z,101141.19
2023-12-08T22:35:00.098Z,101141.06
2023-12-08T22:37:27.285Z,101142.31
2023-12-08T22:39:54.230Z,101137.91
2023-12-08T22:42:26.619Z,101144.22
2023-12-08T22:44:53.536Z,101152.78
2023-12-08T22:47:20.427Z,101156.91
2023-12-08T22:49:47.210Z,101155.81
2023-12-08T22:52:14.102Z,101154.16
2023-12-08T22:54:41.310Z,101153.31
2023-12-08T22:57:08.043Z,101151.78
2023-12-08T22:59:34.996Z,101154.84
2023-12-08T23:02:01.746Z,101146.72
2023-12-08T23:04:28.631Z,101149.34
2023-12-08T23:06:55.450Z,101147.56
2023-12-08T23:09:22.290Z,101149.75
2023-12-08T23:11:49.130Z,101147.25
2023-12-08T23:14:15.896Z,101142.00
2023-12-08T23:16:42.661Z,101144.50
2023-12-08T23:19:16.137Z,101139.13
2023-12-08T23:21:43.335Z,101137.91
2023-12-08T23:24:10.289Z,101144.63
2023-12-08T23:26:42.418Z,101142.84
2023-12-08T23:29:09.042Z,101140.47
2023-12-08T23:31:36.873Z,101142.69
2023-12-08T23:34:04.041Z,101138.03
2023-12-08T23:36:31.335Z,101138.03
2023-12-08T23:38:58.171Z,101143.13
2023-12-08T23:41:25.034Z,101138.44
2023-12-08T23:43:54.175Z,101138.84
2023-12-08T23:46:21.563Z,101140.06
2023-12-08T23:48:48.516Z,101138.41
2023-12-08T23:51:15.443Z,101140.06
2023-12-08T23:53:45.604Z,101148.91
2023-12-08T23:56:13.054Z,101142.13
2023-12-08T23:58:51.465Z,101140.22
